sensor_id;sensor_type;location;lat;lon;timestamp;pressure;altitude;pressure_sealevel;temperature;humidity
76994;BME280;66749;47.406;18.822;2023-04-24T00:00:17;99618.16;;;13.94;59.49
76994;BME280;66749;47.406;18.822;2023-04-24T00:00:47;99606.22;;;13.89;60.73
76994;BME280;66749;47.406;18.822;2023-04-24T00:01:18;99617.56;;;13.90;61.05
76994;BME280;66749;47.406;18.822;2023-04-24T00:01:49;99615.06;;;13.88;60.42
76994;BME280;66749;47.406;18.822;2023-04-24T00:02:20;99614.22;;;13.88;61.04
76994;BME280;66749;47.406;18.822;2023-04-24T00:02:51;99610.78;;;13.87;61.25
76994;BME280;66749;47.406;18.822;2023-04-24T00:03:23;99612.84;;;13.84;63.47
76994;BME280;66749;47.406;18.822;2023-04-24T00:03:53;99607.81;;;13.81;64.62
76994;BME280;66749;47.406;18.822;2023-04-24T00:04:24;99602.00;;;13.77;65.56
76994;BME280;66749;47.406;18.822;2023-04-24T00:04:56;99610.84;;;13.76;66.32
76994;BME280;66749;47.406;18.822;2023-04-24T00:05:26;99607.97;;;13.79;65.51
76994;BME280;66749;47.406;18.822;2023-04-24T00:05:57;99604.50;;;13.79;65.49
76994;BME280;66749;47.406;18.822;2023-04-24T00:06:29;99601.19;;;13.77;65.44
76994;BME280;66749;47.406;18.822;2023-04-24T00:07:03;99600.09;;;13.79;65.63
76994;BME280;66749;47.406;18.822;2023-04-24T00:07:34;99606.66;;;13.74;66.24
76994;BME280;66749;47.406;18.822;2023-04-24T00:08:04;99603.22;;;13.73;66.76
76994;BME280;66749;47.406;18.822;2023-04-24T00:08:35;99611.56;;;13.67;67.23
76994;BME280;66749;47.406;18.822;2023-04-24T00:09:06;99609.78;;;13.68;67.66
76994;BME280;66749;47.406;18.822;2023-04-24T00:09:37;99616.25;;;13.64;68.13
76994;BME280;66749;47.406;18.822;2023-04-24T00:10:08;99619.69;;;13.64;68.84
76994;BME280;66749;47.406;18.822;2023-04-24T00:10:39;99619.69;;;13.64;69.16
76994;BME280;66749;47.406;18.822;2023-04-24T00:11:09;99616.50;;;13.60;69.27
76994;BME280;66749;47.406;18.822;2023-04-24T00:11:41;99620.19;;;13.58;69.58
76994;BME280;66749;47.406;18.822;2023-04-24T00:12:11;99619.34;;;13.57;69.75
76994;BME280;66749;47.406;18.822;2023-04-24T00:12:42;99617.97;;;13.53;69.97
76994;BME280;66749;47.406;18.822;2023-04-24T00:13:12;99616.28;;;13.52;70.44
76994;BME280;66749;47.406;18.822;2023-04-24T00:13:43;99608.53;;;13.51;70.40
76994;BME280;66749;47.406;18.822;2023-04-24T00:14:13;99606.41;;;13.45;69.79
76994;BME280;66749;47.406;18.822;2023-04-24T00:14:44;99603.34;;;13.40;69.67
76994;BME280;66749;47.406;18.822;2023-04-24T00:15:15;99603.91;;;13.43;69.57
76994;BME280;66749;47.406;18.822;2023-04-24T00:15:45;99603.09;;;13.43;69.52
76994;BME280;66749;47.406;18.822;2023-04-24T00:16:16;99602.94;;;13.44;69.63
76994;BME280;66749;47.406;18.822;2023-04-24T00:16:46;99610.25;;;13.41;69.81
76994;BME280;66749;47.406;18.822;2023-04-24T00:17:17;99608.31;;;13.43;69.65
76994;BME280;66749;47.406;18.822;2023-04-24T00:17:50;99597.28;;;13.39;70.33
76994;BME280;66749;47.406;18.822;2023-04-24T00:18:22;99600.84;;;13.38;70.91
76994;BME280;66749;47.406;18.822;2023-04-24T00:18:52;99598.59;;;13.33;71.56
76994;BME280;66749;47.406;18.822;2023-04-24T00:19:23;99609.06;;;13.33;71.75
76994;BME280;66749;47.406;18.822;2023-04-24T00:19:54;99601.56;;;13.29;71.90
76994;BME280;66749;47.406;18.822;2023-04-24T00:20:28;99597.41;;;13.26;72.29
76994;BME280;66749;47.406;18.822;2023-04-24T00:21:06;99597.91;;;13.20;72.35
76994;BME280;66749;47.406;18.822;2023-04-24T00:21:36;99595.63;;;13.16;72.48
76994;BME280;66749;47.406;18.822;2023-04-24T00:22:07;99590.47;;;13.14;72.74
76994;BME280;66749;47.406;18.822;2023-04-24T00:22:38;99593.34;;;13.11;72.88
76994;BME280;66749;47.406;18.822;2023-04-24T00:23:09;99593.34;;;13.11;73.23
76994;BME280;66749;47.406;18.822;2023-04-24T00:23:39;99585.63;;;13.10;73.07
76994;BME280;66749;47.406;18.822;2023-04-24T00:24:10;99582.88;;;13.11;73.07
76994;BME280;66749;47.406;18.822;2023-04-24T00:24:41;99584.53;;;13.12;72.88
76994;BME280;66749;47.406;18.822;2023-04-24T00:25:11;99582.75;;;13.13;73.15
76994;BME280;66749;47.406;18.822;2023-04-24T00:25:42;99590.03;;;13.09;73.20
76994;BME280;66749;47.406;18.822;2023-04-24T00:26:13;99588.38;;;13.08;73.40
76994;BME280;66749;47.406;18.822;2023-04-24T00:26:44;99586.59;;;13.09;73.31
76994;BME280;66749;47.406;18.822;2023-04-24T00:27:14;99587.41;;;13.09;73.49
76994;BME280;66749;47.406;18.822;2023-04-24T00:27:45;99592.78;;;13.08;73.71
76994;BME280;66749;47.406;18.822;2023-04-24T00:28:15;99590.25;;;13.06;73.93
76994;BME280;66749;47.406;18.822;2023-04-24T00:28:46;99596.59;;;13.03;74.00
76994;BME280;66749;47.406;18.822;2023-04-24T00:29:17;99584.44;;;13.02;73.51
76994;BME280;66749;47.406;18.822;2023-04-24T00:29:47;99585.84;;;13.06;73.36
76994;BME280;66749;47.406;18.822;2023-04-24T00:30:18;99578.00;;;13.06;73.42
76994;BME280;66749;47.406;18.822;2023-04-24T00:30:48;99588.25;;;13.10;73.21
76994;BME280;66749;47.406;18.822;2023-04-24T00:31:19;99590.03;;;13.09;73.30
76994;BME280;66749;47.406;18.822;2023-04-24T00:31:50;99587.41;;;13.09;73.71
76994;BME280;66749;47.406;18.822;2023-04-24T00:32:21;99599.09;;;13.05;74.37
76994;BME280;66749;47.406;18.822;2023-04-24T00:32:51;99580.88;;;13.03;74.67
76994;BME280;66749;47.406;18.822;2023-04-24T00:33:22;99581.69;;;13.04;74.35
76994;BME280;66749;47.406;18.822;2023-04-24T00:33:53;99586.81;;;13.05;74.90
76994;BME280;66749;47.406;18.822;2023-04-24T00:34:23;99595.06;;;13.01;74.96
76994;BME280;66749;47.406;18.822;2023-04-24T00:34:54;99592.44;;;13.01;75.13
76994;BME280;66749;47.406;18.822;2023-04-24T00:35:24;99588.84;;;13.02;75.28
76994;BME280;66749;47.406;18.822;2023-04-24T00:35:55;99587.19;;;13.01;74.90
76994;BME280;66749;47.406;18.822;2023-04-24T00:36:26;99594.31;;;12.99;72.45
76994;BME280;66749;47.406;18.822;2023-04-24T00:36:57;99589.22;;;12.97;71.94
76994;BME280;66749;47.406;18.822;2023-04-24T00:37:27;99593.38;;;13.00;72.73
76994;BME280;66749;47.406;18.822;2023-04-24T00:37:58;99592.44;;;13.01;72.50
76994;BME280;66749;47.406;18.822;2023-04-24T00:38:29;99589.81;;;13.01;73.37
76994;BME280;66749;47.406;18.822;2023-04-24T00:39:00;99597.53;;;13.02;72.99
76994;BME280;66749;47.406;18.822;2023-04-24T00:39:31;99589.69;;;13.02;72.35
76994;BME280;66749;47.406;18.822;2023-04-24T00:40:02;99589.91;;;12.99;71.00
76994;BME280;66749;47.406;18.822;2023-04-24T00:40:33;99594.31;;;12.99;69.29
76994;BME280;66749;47.406;18.822;2023-04-24T00:41:04;99585.28;;;13.03;68.00
76994;BME280;66749;47.406;18.822;2023-04-24T00:41:35;99594.09;;;13.02;70.05
76994;BME280;66749;47.406;18.822;2023-04-24T00:42:06;99589.34;;;12.96;72.65
76994;BME280;66749;47.406;18.822;2023-04-24T00:42:37;99587.91;;;12.92;71.24
76994;BME280;66749;47.406;18.822;2023-04-24T00:43:07;99585.75;;;12.97;70.57
76994;BME280;66749;47.406;18.822;2023-04-24T00:43:39;99590.03;;;12.98;69.51
76994;BME280;66749;47.406;18.822;2023-04-24T00:44:09;99592.78;;;12.96;70.11
76994;BME280;66749;47.406;18.822;2023-04-24T00:44:40;99579.69;;;12.96;71.11
76994;BME280;66749;47.406;18.822;2023-04-24T00:45:11;99582.19;;;12.98;72.57
76994;BME280;66749;47.406;18.822;2023-04-24T00:45:43;99581.59;;;12.94;73.51
76994;BME280;66749;47.406;18.822;2023-04-24T00:46:13;99575.88;;;12.89;73.76
76994;BME280;66749;47.406;18.822;2023-04-24T00:46:45;99578.16;;;12.94;68.27
76994;BME280;66749;47.406;18.822;2023-04-24T00:47:16;99584.09;;;12.96;69.96
76994;BME280;66749;47.406;18.822;2023-04-24T00:47:48;99576.13;;;12.97;69.97
76994;BME280;66749;47.406;18.822;2023-04-24T00:48:20;99584.09;;;12.96;68.82
76994;BME280;66749;47.406;18.822;2023-04-24T00:48:51;99582.44;;;12.95;69.44
76994;BME280;66749;47.406;18.822;2023-04-24T00:49:22;99592.66;;;12.98;70.67
76994;BME280;66749;47.406;18.822;2023-04-24T00:49:53;99592.66;;;12.98;70.27
76994;BME280;66749;47.406;18.822;2023-04-24T00:50:24;99596.84;;;13.00;69.08
76994;BME280;66749;47.406;18.822;2023-04-24T00:50:54;99594.09;;;13.02;68.79
76994;BME280;66749;47.406;18.822;2023-04-24T00:51:25;99577.28;;;13.04;69.20
76994;BME280;66749;47.406;18.822;2023-04-24T00:51:56;99583.38;;;13.05;69.33
76994;BME280;66749;47.406;18.822;2023-04-24T00:52:27;99585.16;;;13.04;68.40
76994;BME280;66749;47.406;18.822;2023-04-24T00:52:58;99581.00;;;13.02;67.45
76994;BME280;66749;47.406;18.822;2023-04-24T00:53:29;99581.13;;;13.00;68.99
76994;BME280;66749;47.406;18.822;2023-04-24T00:54:00;99579.22;;;13.02;68.13
76994;BME280;66749;47.406;18.822;2023-04-24T00:54:31;99577.28;;;13.04;68.10
76994;BME280;66749;47.406;18.822;2023-04-24T00:55:02;99576.34;;;13.05;68.93
76994;BME280;66749;47.406;18.822;2023-04-24T00:55:33;99579.09;;;13.04;69.57
76994;BME280;66749;47.406;18.822;2023-04-24T00:56:04;99579.78;;;13.06;70.06
76994;BME280;66749;47.406;18.822;2023-04-24T00:56:35;99578.38;;;13.02;69.05
76994;BME280;66749;47.406;18.822;2023-04-24T00:57:06;99584.19;;;13.05;67.70
76994;BME280;66749;47.406;18.822;2023-04-24T00:57:37;99574.81;;;13.03;67.53
76994;BME280;66749;47.406;18.822;2023-04-24T00:58:08;99572.88;;;13.05;66.57
76994;BME280;66749;47.406;18.822;2023-04-24T00:58:39;99578.81;;;13.07;66.28
76994;BME280;66749;47.406;18.822;2023-04-24T00:59:12;99588.47;;;13.06;66.92
76994;BME280;66749;47.406;18.822;2023-04-24T00:59:44;99571.94;;;13.06;67.33
76994;BME280;66749;47.406;18.822;2023-04-24T01:00:15;99572.66;;;13.08;67.58
76994;BME280;66749;47.406;18.822;2023-04-24T01:00:49;99575.28;;;13.08;65.77
76994;BME280;66749;47.406;18.822;2023-04-24T01:01:23;99572.66;;;13.08;65.50
76994;BME280;66749;47.406;18.822;2023-04-24T01:01:54;99568.25;;;13.09;65.36
76994;BME280;66749;47.406;18.822;2023-04-24T01:02:25;99568.94;;;13.11;65.62
76994;BME280;66749;47.406;18.822;2023-04-24T01:02:58;99575.97;;;13.10;67.53
76994;BME280;66749;47.406;18.822;2023-04-24T01:03:31;99567.53;;;13.06;67.32
76994;BME280;66749;47.406;18.822;2023-04-24T01:04:02;99574.69;;;13.04;67.71
76994;BME280;66749;47.406;18.822;2023-04-24T01:04:32;99570.41;;;13.03;69.42
76994;BME280;66749;47.406;18.822;2023-04-24T01:05:03;99565.97;;;13.04;70.23
76994;BME280;66749;47.406;18.822;2023-04-24T01:05:34;99572.19;;;13.03;71.07
76994;BME280;66749;47.406;18.822;2023-04-24T01:06:05;99575.38;;;13.06;70.11
76994;BME280;66749;47.406;18.822;2023-04-24T01:06:40;99566.59;;;13.08;68.73
76994;BME280;66749;47.406;18.822;2023-04-24T01:07:13;99563.25;;;13.05;68.36
76994;BME280;66749;47.406;18.822;2023-04-24T01:07:45;99568.59;;;13.04;70.72
76994;BME280;66749;47.406;18.822;2023-04-24T01:08:17;99565.16;;;13.03;71.42
76994;BME280;66749;47.406;18.822;2023-04-24T01:08:48;99571.22;;;13.04;70.76
76994;BME280;66749;47.406;18.822;2023-04-24T01:09:22;99560.03;;;13.02;68.66
76994;BME280;66749;47.406;18.822;2023-04-24T01:09:53;99559.91;;;13.03;69.40
76994;BME280;66749;47.406;18.822;2023-04-24T01:10:25;99558.97;;;13.04;70.72
76994;BME280;66749;47.406;18.822;2023-04-24T01:10:57;99559.91;;;13.03;69.17
76994;BME280;66749;47.406;18.822;2023-04-24T01:11:28;99550.97;;;13.06;67.20
76994;BME280;66749;47.406;18.822;2023-04-24T01:12:00;99550.28;;;13.04;67.15
76994;BME280;66749;47.406;18.822;2023-04-24T01:12:32;99554.69;;;13.03;68.43
76994;BME280;66749;47.406;18.822;2023-04-24T01:13:02;99546.69;;;13.05;69.55
76994;BME280;66749;47.406;18.822;2023-04-24T01:13:34;99552.75;;;13.05;69.51
76994;BME280;66749;47.406;18.822;2023-04-24T01:14:05;99550.13;;;13.05;69.06
76994;BME280;66749;47.406;18.822;2023-04-24T01:14:37;99545.28;;;13.01;68.43
76994;BME280;66749;47.406;18.822;2023-04-24T01:15:08;99543.38;;;13.03;67.54
76994;BME280;66749;47.406;18.822;2023-04-24T01:15:39;99549.31;;;13.05;67.40
76994;BME280;66749;47.406;18.822;2023-04-24T01:16:10;99540.50;;;13.06;67.48
76994;BME280;66749;47.406;18.822;2023-04-24T01:16:40;99543.94;;;13.06;66.88
76994;BME280;66749;47.406;18.822;2023-04-24T01:17:11;99542.16;;;13.07;67.13
76994;BME280;66749;47.406;18.822;2023-04-24T01:17:42;99547.28;;;13.09;68.32
76994;BME280;66749;47.406;18.822;2023-04-24T01:18:14;99536.81;;;13.09;68.30
76994;BME280;66749;47.406;18.822;2023-04-24T01:18:44;99536.09;;;13.06;67.79
76994;BME280;66749;47.406;18.822;2023-04-24T01:19:18;99538.69;;;13.06;67.67
76994;BME280;66749;47.406;18.822;2023-04-24T01:19:49;99537.88;;;13.06;67.83
76994;BME280;66749;47.406;18.822;2023-04-24T01:20:20;99541.09;;;13.10;68.15
76994;BME280;66749;47.406;18.822;2023-04-24T01:20:54;99539.44;;;13.09;67.43
76994;BME280;66749;47.406;18.822;2023-04-24T01:21:30;99536.91;;;13.07;68.00
76994;BME280;66749;47.406;18.822;2023-04-24T01:22:02;99536.00;;;13.08;68.14
76994;BME280;66749;47.406;18.822;2023-04-24T01:22:34;99535.03;;;13.09;67.78
76994;BME280;66749;47.406;18.822;2023-04-24T01:23:05;99538.34;;;13.11;67.60
76994;BME280;66749;47.406;18.822;2023-04-24T01:23:36;99534.91;;;13.11;67.47
76994;BME280;66749;47.406;18.822;2023-04-24T01:24:06;99540.13;;;13.11;67.93
76994;BME280;66749;47.406;18.822;2023-04-24T01:24:38;99537.66;;;13.09;67.91
76994;BME280;66749;47.406;18.822;2023-04-24T01:25:09;99538.34;;;13.11;68.28
76994;BME280;66749;47.406;18.822;2023-04-24T01:25:39;99541.09;;;13.10;67.98
76994;BME280;66749;47.406;18.822;2023-04-24T01:26:11;99535.16;;;13.08;67.82
76994;BME280;66749;47.406;18.822;2023-04-24T01:26:42;99537.38;;;13.12;67.80
76994;BME280;66749;47.406;18.822;2023-04-24T01:27:13;99530.50;;;13.11;68.30
76994;BME280;66749;47.406;18.822;2023-04-24T01:27:44;99532.16;;;13.12;67.97
76994;BME280;66749;47.406;18.822;2023-04-24T01:28:15;99536.28;;;13.15;68.37
76994;BME280;66749;47.406;18.822;2023-04-24T01:28:47;99529.31;;;13.15;69.11
76994;BME280;66749;47.406;18.822;2023-04-24T01:29:18;99524.16;;;13.14;68.83
76994;BME280;66749;47.406;18.822;2023-04-24T01:29:49;99538.81;;;13.16;68.39
76994;BME280;66749;47.406;18.822;2023-04-24T01:30:22;99531.91;;;13.15;68.64
76994;BME280;66749;47.406;18.822;2023-04-24T01:30:53;99534.53;;;13.15;69.31
76994;BME280;66749;47.406;18.822;2023-04-24T01:31:24;99534.78;;;13.12;69.59
76994;BME280;66749;47.406;18.822;2023-04-24T01:31:54;99533.81;;;13.13;69.02
76994;BME280;66749;47.406;18.822;2023-04-24T01:32:26;99530.50;;;13.11;68.94
76994;BME280;66749;47.406;18.822;2023-04-24T01:32:58;99523.34;;;13.13;68.73
76994;BME280;66749;47.406;18.822;2023-04-24T01:33:29;99528.34;;;13.16;68.49
76994;BME280;66749;47.406;18.822;2023-04-24T01:34:00;99524.75;;;13.17;68.76
76994;BME280;66749;47.406;18.822;2023-04-24T01:34:30;99523.09;;;13.16;68.70
76994;BME280;66749;47.406;18.822;2023-04-24T01:35:01;99526.41;;;13.18;68.95
76994;BME280;66749;47.406;18.822;2023-04-24T01:35:32;99522.84;;;13.19;68.33
76994;BME280;66749;47.406;18.822;2023-04-24T01:36:03;99523.94;;;13.17;68.61
76994;BME280;66749;47.406;18.822;2023-04-24T01:36:34;99520.34;;;13.18;68.59
76994;BME280;66749;47.406;18.822;2023-04-24T01:37:05;99520.22;;;13.19;69.12
76994;BME280;66749;47.406;18.822;2023-04-24T01:37:36;99520.22;;;13.19;69.08
76994;BME280;66749;47.406;18.822;2023-04-24T01:38:10;99522.59;;;13.22;68.79
76994;BME280;66749;47.406;18.822;2023-04-24T01:38:41;99517.59;;;13.19;69.62
76994;BME280;66749;47.406;18.822;2023-04-24T01:39:11;99522.75;;;13.21;69.40
76994;BME280;66749;47.406;18.822;2023-04-24T01:39:43;99521.78;;;13.22;69.67
76994;BME280;66749;47.406;18.822;2023-04-24T01:40:14;99520.72;;;13.24;69.23
76994;BME280;66749;47.406;18.822;2023-04-24T01:40:44;99515.47;;;13.24;69.44
76994;BME280;66749;47.406;18.822;2023-04-24T01:41:15;99504.03;;;13.25;69.93
76994;BME280;66749;47.406;18.822;2023-04-24T01:41:46;99505.69;;;13.26;70.26
76994;BME280;66749;47.406;18.822;2023-04-24T01:42:16;99511.63;;;13.28;70.32
76994;BME280;66749;47.406;18.822;2023-04-24T01:42:47;99503.91;;;13.27;70.45
76994;BME280;66749;47.406;18.822;2023-04-24T01:43:18;99502.25;;;13.26;71.04
76994;BME280;66749;47.406;18.822;2023-04-24T01:43:49;99498.81;;;13.25;71.79
76994;BME280;66749;47.406;18.822;2023-04-24T01:44:20;99499.63;;;13.26;72.44
76994;BME280;66749;47.406;18.822;2023-04-24T01:44:51;99502.25;;;13.26;72.42
76994;BME280;66749;47.406;18.822;2023-04-24T01:45:21;99498.94;;;13.24;72.50
76994;BME280;66749;47.406;18.822;2023-04-24T01:45:52;99492.88;;;13.23;72.45
76994;BME280;66749;47.406;18.822;2023-04-24T01:46:23;99493.91;;;13.21;72.72
76994;BME280;66749;47.406;18.822;2023-04-24T01:46:55;99493.69;;;13.24;72.49
76994;BME280;66749;47.406;18.822;2023-04-24T01:47:25;99492.88;;;13.23;72.22
76994;BME280;66749;47.406;18.822;2023-04-24T01:47:56;99500.94;;;13.20;72.23
76994;BME280;66749;47.406;18.822;2023-04-24T01:48:27;99483.44;;;13.21;72.04
76994;BME280;66749;47.406;18.822;2023-04-24T01:48:59;99484.28;;;13.21;71.70
76994;BME280;66749;47.406;18.822;2023-04-24T01:49:30;99490.34;;;13.22;72.13
76994;BME280;66749;47.406;18.822;2023-04-24T01:50:03;99481.56;;;13.23;72.07
76994;BME280;66749;47.406;18.822;2023-04-24T01:50:34;99483.31;;;13.22;72.14
76994;BME280;66749;47.406;18.822;2023-04-24T01:51:04;99487.72;;;13.22;72.36
76994;BME280;66749;47.406;18.822;2023-04-24T01:51:35;99487.94;;;13.19;72.07
76994;BME280;66749;47.406;18.822;2023-04-24T01:52:06;99495.72;;;13.20;71.46
76994;BME280;66749;47.406;18.822;2023-04-24T01:52:36;99489.75;;;13.18;71.86
76994;BME280;66749;47.406;18.822;2023-04-24T01:53:07;99486.28;;;13.18;71.67
76994;BME280;66749;47.406;18.822;2023-04-24T01:53:38;99485.59;;;13.16;71.36
76994;BME280;66749;47.406;18.822;2023-04-24T01:54:08;99488.91;;;13.18;71.36
76994;BME280;66749;47.406;18.822;2023-04-24T01:54:39;99481.78;;;13.20;71.12
76994;BME280;66749;47.406;18.822;2023-04-24T01:55:10;99490.25;;;13.23;70.83
76994;BME280;66749;47.406;18.822;2023-04-24T01:55:41;99485.94;;;13.22;70.74
76994;BME280;66749;47.406;18.822;2023-04-24T01:56:11;99487.63;;;13.23;70.97
76994;BME280;66749;47.406;18.822;2023-04-24T01:56:43;99484.88;;;13.25;71.62
76994;BME280;66749;47.406;18.822;2023-04-24T01:57:14;99489.00;;;13.27;71.60
76994;BME280;66749;47.406;18.822;2023-04-24T01:57:46;99475.78;;;13.29;71.03
76994;BME280;66749;47.406;18.822;2023-04-24T01:58:17;99487.09;;;13.29;70.64
76994;BME280;66749;47.406;18.822;2023-04-24T01:58:50;99477.47;;;13.30;70.42
76994;BME280;66749;47.406;18.822;2023-04-24T01:59:23;99480.19;;;13.28;71.08
76994;BME280;66749;47.406;18.822;2023-04-24T01:59:55;99481.84;;;13.29;71.22
76994;BME280;66749;47.406;18.822;2023-04-24T02:00:26;99477.56;;;13.28;70.91
76994;BME280;66749;47.406;18.822;2023-04-24T02:00:57;99480.78;;;13.32;71.22
76994;BME280;66749;47.406;18.822;2023-04-24T02:01:34;99479.84;;;13.33;71.23
76994;BME280;66749;47.406;18.822;2023-04-24T02:02:06;99478.03;;;13.33;70.00
76994;BME280;66749;47.406;18.822;2023-04-24T02:02:37;99476.94;;;13.36;69.96
76994;BME280;66749;47.406;18.822;2023-04-24T02:03:07;99481.13;;;13.39;70.14
76994;BME280;66749;47.406;18.822;2023-04-24T02:03:38;99475.06;;;13.38;70.31
76994;BME280;66749;47.406;18.822;2023-04-24T02:04:09;99473.97;;;13.41;70.56
76994;BME280;66749;47.406;18.822;2023-04-24T02:04:40;99475.06;;;13.38;71.06
76994;BME280;66749;47.406;18.822;2023-04-24T02:05:10;99483.63;;;13.40;71.31
76994;BME280;66749;47.406;18.822;2023-04-24T02:05:44;99477.53;;;13.40;72.02
76994;BME280;66749;47.406;18.822;2023-04-24T02:06:15;99475.88;;;13.39;71.93
76994;BME280;66749;47.406;18.822;2023-04-24T02:06:45;99474.31;;;13.36;72.08
76994;BME280;66749;47.406;18.822;2023-04-24T02:07:16;99468.38;;;13.34;72.49
76994;BME280;66749;47.406;18.822;2023-04-24T02:07:47;99474.22;;;13.38;71.84
76994;BME280;66749;47.406;18.822;2023-04-24T02:08:17;99476.13;;;13.36;72.05
76994;BME280;66749;47.406;18.822;2023-04-24T02:08:48;99480.41;;;13.37;72.06
76994;BME280;66749;47.406;18.822;2023-04-24T02:09:18;99483.00;;;13.37;72.07
76994;BME280;66749;47.406;18.822;2023-04-24T02:09:49;99482.31;;;13.35;72.22
76994;BME280;66749;47.406;18.822;2023-04-24T02:10:20;99484.09;;;13.34;72.01
76994;BME280;66749;47.406;18.822;2023-04-24T02:10:50;99483.28;;;13.33;71.92
76994;BME280;66749;47.406;18.822;2023-04-24T02:11:21;99481.63;;;13.32;71.86
76994;BME280;66749;47.406;18.822;2023-04-24T02:11:51;99481.63;;;13.32;72.49
76994;BME280;66749;47.406;18.822;2023-04-24T02:12:22;99485.91;;;13.33;72.41
76994;BME280;66749;47.406;18.822;2023-04-24T02:12:53;99492.81;;;13.35;72.27
76994;BME280;66749;47.406;18.822;2023-04-24T02:13:23;99486.03;;;13.32;72.46
76994;BME280;66749;47.406;18.822;2023-04-24T02:13:54;99483.41;;;13.32;72.00
76994;BME280;66749;47.406;18.822;2023-04-24T02:14:24;99488.06;;;13.28;71.60
76994;BME280;66749;47.406;18.822;2023-04-24T02:14:55;99490.69;;;13.28;71.81
76994;BME280;66749;47.406;18.822;2023-04-24T02:15:26;99480.31;;;13.27;72.19
76994;BME280;66749;47.406;18.822;2023-04-24T02:15:58;99484.47;;;13.29;71.09
76994;BME280;66749;47.406;18.822;2023-04-24T02:16:28;99480.31;;;13.27;71.24
76994;BME280;66749;47.406;18.822;2023-04-24T02:17:06;99483.53;;;13.30;71.28
76994;BME280;66749;47.406;18.822;2023-04-24T02:17:37;99487.00;;;13.31;71.02
76994;BME280;66749;47.406;18.822;2023-04-24T02:18:07;99481.63;;;13.32;71.07
76994;BME280;66749;47.406;18.822;2023-04-24T02:18:38;99490.19;;;13.35;71.14
76994;BME280;66749;47.406;18.822;2023-04-24T02:19:09;99482.19;;;13.36;70.85
76994;BME280;66749;47.406;18.822;2023-04-24T02:19:39;99483.16;;;13.35;71.13
76994;BME280;66749;47.406;18.822;2023-04-24T02:20:10;99484.94;;;13.35;71.43
76994;BME280;66749;47.406;18.822;2023-04-24T02:20:41;99473.50;;;13.36;70.84
76994;BME280;66749;47.406;18.822;2023-04-24T02:21:11;99477.78;;;13.37;70.78
76994;BME280;66749;47.406;18.822;2023-04-24T02:21:42;99478.59;;;13.37;70.73
76994;BME280;66749;47.406;18.822;2023-04-24T02:22:12;99468.97;;;13.38;70.76
76994;BME280;66749;47.406;18.822;2023-04-24T02:22:43;99473.25;;;13.39;70.80
76994;BME280;66749;47.406;18.822;2023-04-24T02:23:13;99475.88;;;13.39;71.09
76994;BME280;66749;47.406;18.822;2023-04-24T02:23:44;99480.16;;;13.40;71.25
76994;BME280;66749;47.406;18.822;2023-04-24T02:24:15;99476.94;;;13.36;71.67
76994;BME280;66749;47.406;18.822;2023-04-24T02:24:46;99481.13;;;13.39;71.67
76994;BME280;66749;47.406;18.822;2023-04-24T02:25:16;99477.78;;;13.37;71.46
76994;BME280;66749;47.406;18.822;2023-04-24T02:25:47;99477.78;;;13.37;71.52
76994;BME280;66749;47.406;18.822;2023-04-24T02:26:18;99473.34;;;13.37;71.12
76994;BME280;66749;47.406;18.822;2023-04-24T02:26:49;99471.47;;;13.39;71.41
76994;BME280;66749;47.406;18.822;2023-04-24T02:27:19;99472.53;;;13.37;71.69
76994;BME280;66749;47.406;18.822;2023-04-24T02:27:50;99469.81;;;13.38;71.42
76994;BME280;66749;47.406;18.822;2023-04-24T02:28:20;99468.97;;;13.38;71.45
76994;BME280;66749;47.406;18.822;2023-04-24T02:28:51;99475.75;;;13.40;71.31
76994;BME280;66749;47.406;18.822;2023-04-24T02:29:22;99465.41;;;13.39;71.20
76994;BME280;66749;47.406;18.822;2023-04-24T02:29:53;99468.13;;;13.37;71.38
76994;BME280;66749;47.406;18.822;2023-04-24T02:30:23;99472.31;;;13.40;70.90
76994;BME280;66749;47.406;18.822;2023-04-24T02:30:54;99469.69;;;13.40;71.62
76994;BME280;66749;47.406;18.822;2023-04-24T02:31:24;99467.28;;;13.37;71.18
76994;BME280;66749;47.406;18.822;2023-04-24T02:31:55;99468.03;;;13.39;71.56
76994;BME280;66749;47.406;18.822;2023-04-24T02:32:25;99467.19;;;13.38;71.06
76994;BME280;66749;47.406;18.822;2023-04-24T02:32:56;99463.75;;;13.38;71.55
76994;BME280;66749;47.406;18.822;2023-04-24T02:33:27;99466.22;;;13.39;71.51
76994;BME280;66749;47.406;18.822;2023-04-24T02:33:57;99465.75;;;13.34;71.28
76994;BME280;66749;47.406;18.822;2023-04-24T02:34:28;99466.47;;;13.36;71.68
76994;BME280;66749;47.406;18.822;2023-04-24T02:34:58;99465.63;;;13.36;71.36
76994;BME280;66749;47.406;18.822;2023-04-24T02:35:29;99467.19;;;13.38;71.40
76994;BME280;66749;47.406;18.822;2023-04-24T02:36:00;99467.28;;;13.37;71.98
76994;BME280;66749;47.406;18.822;2023-04-24T02:36:31;99462.31;;;13.33;71.54
76994;BME280;66749;47.406;18.822;2023-04-24T02:37:01;99470.03;;;13.35;71.44
76994;BME280;66749;47.406;18.822;2023-04-24T02:37:32;99468.97;;;13.38;71.55
76994;BME280;66749;47.406;18.822;2023-04-24T02:38:03;99471.59;;;13.38;71.77
76994;BME280;66749;47.406;18.822;2023-04-24T02:38:34;99463.75;;;13.38;71.62
76994;BME280;66749;47.406;18.822;2023-04-24T02:39:05;99466.47;;;13.36;71.78
76994;BME280;66749;47.406;18.822;2023-04-24T02:39:35;99463.75;;;13.38;71.39
76994;BME280;66749;47.406;18.822;2023-04-24T02:40:07;99466.22;;;13.39;71.44
76994;BME280;66749;47.406;18.822;2023-04-24T02:40:37;99463.00;;;13.36;71.36
76994;BME280;66749;47.406;18.822;2023-04-24T02:41:08;99459.44;;;13.37;71.28
76994;BME280;66749;47.406;18.822;2023-04-24T02:41:38;99464.81;;;13.35;71.38
76994;BME280;66749;47.406;18.822;2023-04-24T02:42:09;99462.31;;;13.33;71.78
76994;BME280;66749;47.406;18.822;2023-04-24T02:42:40;99459.81;;;13.32;71.83